Time,TemperatureF,DewpointF,PressureIn,WindDirection,WindDirectionDegrees,WindSpeedMPH,WindSpeedGustMPH,Humidity,HourlyPrecipIn,Conditions,Clouds,dailyrainin,SoftwareType,DateUTC
2013-02-12 00:08:00,22.1,17.0,30.16,West,265,8.0,16.0,80,0.00,,,0.00,weatherlink.com 1.10,2013-02-12 06:08:00,
2013-02-12 00:23:00,22.1,17.0,30.16,WSW,251,8.0,18.0,80,0.00,,,0.00,weatherlink.com 1.10,2013-02-12 06:23:00,
2013-02-12 00:38:00,22.1,17.0,30.16,West,268,6.0,13.0,80,0.00,,,0.00,weatherlink.com 1.10,2013-02-12 06:38:00,
2013-02-12 00:54:00,22.1,17.0,30.17,West,272,10.0,15.0,80,0.00,,,0.00,weatherlink.com 1.10,2013-02-12 06:54:00,
2013-02-12 01:09:00,22.1,17.0,30.17,WNW,287,8.0,13.0,79,0.00,,,0.00,weatherlink.com 1.10,2013-02-12 07:09:00,
2013-02-12 01:24:00,22.1,17.0,30.17,West,267,5.0,10.0,79,0.00,,,0.00,weatherlink.com 1.10,2013-02-12 07:24:00,
2013-02-12 01:39:00,22.3,17.0,30.17,WSW,248,5.0,8.0,79,0.00,,,0.00,weatherlink.com 1.10,2013-02-12 07:39:00,
2013-02-12 01:54:00,22.4,17.0,30.17,WSW,252,0.0,8.0,79,0.00,,,0.00,weatherlink.com 1.10,2013-02-12 07:54:00,
2013-02-12 02:09:00,22.5,17.0,30.18,SW,231,8.0,11.0,79,0.00,,,0.00,weatherlink.com 1.10,2013-02-12 08:09:00,
2013-02-12 02:24:00,22.8,17.0,30.18,SW,235,0.0,15.0,79,0.00,,,0.00,weatherlink.com 1.10,2013-02-12 08:24:00,
2013-02-12 02:39:00,22.9,17.0,30.18,West,273,1.0,13.0,79,0.00,,,0.00,weatherlink.com 1.10,2013-02-12 08:39:00,
2013-02-12 02:54:00,22.9,17.0,30.18,WSW,245,5.0,11.0,79,0.00,,,0.00,weatherlink.com 1.10,2013-02-12 08:54:00,
2013-02-12 03:09:00,23.1,18.0,30.19,SW,225,9.0,16.0,79,0.00,,,0.00,weatherlink.com 1.10,2013-02-12 09:09:00,
2013-02-12 03:24:00,23.1,18.0,30.18,West,262,6.0,12.0,79,0.00,,,0.00,weatherlink.com 1.10,2013-02-12 09:24:00,
2013-02-12 03:39:00,23.1,18.0,30.18,WSW,240,2.0,10.0,79,0.00,,,0.00,weatherlink.com 1.10,2013-02-12 09:39:00,
2013-02-12 03:54:00,23.1,18.0,30.18,SW,232,6.0,12.0,79,0.00,,,0.00,weatherlink.com 1.10,2013-02-12 09:54:00,
2013-02-12 04:09:00,23.0,17.0,30.18,WSW,244,8.0,16.0,77,0.00,,,0.00,weatherlink.com 1.10,2013-02-12 10:09:00,
2013-02-12 04:24:00,23.1,17.0,30.18,WSW,242,4.0,8.0,78,0.00,,,0.00,weatherlink.com 1.10,2013-02-12 10:24:00,
2013-02-12 04:39:00,22.9,17.0,30.18,SW,217,12.0,12.0,77,0.00,,,0.00,weatherlink.com 1.10,2013-02-12 10:39:00,
2013-02-12 04:54:00,22.2,16.0,30.19,WSW,247,14.0,18.0,76,0.00,,,0.00,weatherlink.com 1.10,2013-02-12 10:54:00,
2013-02-12 05:09:00,21.8,16.0,30.18,WSW,246,5.0,13.0,77,0.00,,,0.00,weatherlink.com 1.10,2013-02-12 11:09:00,
2013-02-12 05:24:00,21.5,16.0,30.18,WSW,243,5.0,9.0,78,0.00,,,0.00,weatherlink.com 1.10,2013-02-12 11:24:00,
2013-02-12 05:39:00,21.3,16.0,30.18,WSW,243,0.0,6.0,79,0.00,,,0.00,weatherlink.com 1.10,2013-02-12 11:39:00,
2013-02-12 05:54:00,21.0,16.0,30.18,WSW,242,0.0,7.0,80,0.00,,,0.00,weatherlink.com 1.10,2013-02-12 11:54:00,
2013-02-12 06:09:00,20.9,16.0,30.18,WSW,242,1.0,7.0,80,0.00,,,0.00,weatherlink.com 1.10,2013-02-12 12:09:00,
2013-02-12 06:24:00,20.8,16.0,30.18,WSW,242,1.0,6.0,80,0.00,,,0.00,weatherlink.com 1.10,2013-02-12 12:24:00,
2013-02-12 06:39:00,20.9,16.0,30.18,WSW,242,0.0,7.0,81,0.00,,,0.00,weatherlink.com 1.10,2013-02-12 12:39:00,
2013-02-12 06:54:00,21.1,16.0,30.18,WSW,242,0.0,4.0,81,0.00,,,0.00,weatherlink.com 1.10,2013-02-12 12:54:00,
2013-02-12 07:09:00,21.2,16.0,30.18,WSW,242,0.0,4.0,81,0.00,,,0.00,weatherlink.com 1.10,2013-02-12 13:09:00,
2013-02-12 07:24:00,21.3,16.0,30.18,WSW,242,0.0,5.0,81,0.00,,,0.00,weatherlink.com 1.10,2013-02-12 13:24:00,
2013-02-12 07:39:00,21.4,16.0,30.18,WSW,242,6.0,6.0,81,0.00,,,0.00,weatherlink.com 1.10,2013-02-12 13:39:00,
2013-02-12 07:54:00,21.3,16.0,30.19,South,182,7.0,8.0,81,0.00,,,0.00,weatherlink.com 1.10,2013-02-12 13:54:00,
2013-02-12 08:09:00,21.3,17.0,30.20,SE,146,8.0,10.0,82,0.00,,,0.00,weatherlink.com 1.10,2013-02-12 14:09:00,
2013-02-12 08:24:00,21.6,17.0,30.20,SSE,148,7.0,8.0,82,0.00,,,0.00,weatherlink.com 1.10,2013-02-12 14:24:00,
2013-02-12 08:39:00,21.8,17.0,30.19,SSE,148,2.0,9.0,82,0.00,,,0.00,weatherlink.com 1.10,2013-02-12 14:39:00,
2013-02-12 08:54:00,22.2,17.0,30.19,SSE,148,5.0,9.0,81,0.00,,,0.00,weatherlink.com 1.10,2013-02-12 14:54:00,
2013-02-12 09:09:00,22.4,18.0,30.19,SE,128,9.0,11.0,82,0.00,,,0.00,weatherlink.com 1.10,2013-02-12 15:09:00,
2013-02-12 09:24:00,22.7,18.0,30.18,SE,142,6.0,10.0,82,0.00,,,0.00,weatherlink.com 1.10,2013-02-12 15:24:00,
2013-02-12 09:39:00,22.9,18.0,30.18,SSE,148,8.0,11.0,82,0.00,,,0.00,weatherlink.com 1.10,2013-02-12 15:39:00,
2013-02-12 09:54:00,23.0,18.0,30.17,SE,127,9.0,13.0,81,0.00,,,0.00,weatherlink.com 1.10,2013-02-12 15:54:00,
2013-02-12 10:09:00,23.4,18.0,30.17,SSE,153,8.0,12.0,81,0.00,,,0.00,weatherlink.com 1.10,2013-02-12 16:09:00,
2013-02-12 10:24:00,24.1,19.0,30.16,SE,142,10.0,11.0,80,0.00,,,0.00,weatherlink.com 1.10,2013-02-12 16:24:00,
2013-02-12 10:39:00,24.6,19.0,30.15,SSE,152,1.0,11.0,80,0.00,,,0.00,weatherlink.com 1.10,2013-02-12 16:39:00,
2013-02-12 10:54:00,25.3,20.0,30.14,SSE,156,4.0,10.0,79,0.00,,,0.00,weatherlink.com 1.10,2013-02-12 16:54:00,
2013-02-12 11:09:00,26.2,20.0,30.14,ESE,115,6.0,10.0,78,0.00,,,0.00,weatherlink.com 1.10,2013-02-12 17:09:00,
2013-02-12 11:24:00,26.3,20.0,30.13,SE,139,9.0,11.0,78,0.00,,,0.00,weatherlink.com 1.10,2013-02-12 17:24:00,
2013-02-12 11:39:00,27.1,21.0,30.13,SE,142,9.0,13.0,77,0.00,,,0.00,weatherlink.com 1.10,2013-02-12 17:39:00,
2013-02-12 11:55:00,28.9,22.0,30.12,SSE,167,7.0,13.0,76,0.00,,,0.00,weatherlink.com 1.10,2013-02-12 17:55:00,
2013-02-12 12:10:00,29.6,22.0,30.11,South,181,9.0,14.0,73,0.00,,,0.00,weatherlink.com 1.10,2013-02-12 18:10:00,
2013-02-12 12:25:00,30.8,23.0,30.10,SSW,196,12.0,14.0,73,0.00,,,0.00,weatherlink.com 1.10,2013-02-12 18:25:00,
2013-02-12 12:40:00,31.1,23.0,30.09,SSW,205,5.0,16.0,73,0.00,,,0.00,weatherlink.com 1.10,2013-02-12 18:40:00,
2013-02-12 12:55:00,32.3,24.0,30.08,SSW,198,7.0,15.0,71,0.00,,,0.00,weatherlink.com 1.10,2013-02-12 18:55:00,
2013-02-12 13:10:00,-999.0,-99.9,30.07,North,-999,-999.0,-999.0,-999,0.00,,,0.00,weatherlink.com 1.10,2013-02-12 19:10:00,
2013-02-12 13:25:00,32.5,24.0,30.06,South,175,13.0,15.0,71,0.00,,,0.00,weatherlink.com 1.10,2013-02-12 19:25:00,
2013-02-12 13:40:00,33.4,25.0,30.06,South,181,11.0,16.0,70,0.00,,,0.00,weatherlink.com 1.10,2013-02-12 19:40:00,
2013-02-12 13:55:00,34.4,24.0,30.06,SSW,213,9.0,20.0,67,0.00,,,0.00,weatherlink.com 1.10,2013-02-12 19:55:00,
2013-02-12 14:10:00,34.7,24.0,30.05,SSE,158,12.0,20.0,66,0.00,,,0.00,weatherlink.com 1.10,2013-02-12 20:10:00,
2013-02-12 14:25:00,34.7,25.0,30.05,SSE,153,13.0,20.0,68,0.00,,,0.00,weatherlink.com 1.10,2013-02-12 20:25:00,
2013-02-12 14:40:00,35.3,25.0,30.04,SSE,160,11.0,21.0,67,0.00,,,0.00,weatherlink.com 1.10,2013-02-12 20:40:00,
2013-02-12 14:55:00,35.1,25.0,30.04,SSW,196,14.0,22.0,68,0.00,,,0.00,weatherlink.com 1.10,2013-02-12 20:55:00,
2013-02-12 15:10:00,35.1,25.0,30.03,South,185,8.0,20.0,68,0.00,,,0.00,weatherlink.com 1.10,2013-02-12 21:10:00,
2013-02-12 15:25:00,35.0,25.0,30.03,South,174,13.0,19.0,68,0.00,,,0.00,weatherlink.com 1.10,2013-02-12 21:25:00,
2013-02-12 15:40:00,-999.0,-99.9,30.02,North,-999,-999.0,-999.0,-999,0.00,,,0.00,weatherlink.com 1.10,2013-02-12 21:40:00,
2013-02-12 15:55:00,-999.0,-99.9,30.02,North,-999,-999.0,-999.0,-999,0.00,,,0.00,weatherlink.com 1.10,2013-02-12 21:55:00,
2013-02-12 16:10:00,35.4,26.0,30.01,South,176,11.0,20.0,68,0.00,,,0.00,weatherlink.com 1.10,2013-02-12 22:10:00,
2013-02-12 16:25:00,35.4,26.0,30.01,SSE,165,14.0,15.0,68,0.00,,,0.00,weatherlink.com 1.10,2013-02-12 22:25:00,
2013-02-12 16:40:00,35.1,26.0,30.01,South,180,6.0,18.0,69,0.00,,,0.00,weatherlink.com 1.10,2013-02-12 22:40:00,
2013-02-12 16:55:00,35.1,26.0,30.01,SSE,156,12.0,18.0,70,0.00,,,0.00,weatherlink.com 1.10,2013-02-12 22:55:00,
2013-02-12 17:10:00,34.8,26.0,30.02,South,191,8.0,13.0,71,0.00,,,0.00,weatherlink.com 1.10,2013-02-12 23:10:00,
2013-02-12 17:25:00,34.4,26.0,30.02,SSW,198,10.0,12.0,72,0.00,,,0.00,weatherlink.com 1.10,2013-02-12 23:25:00,
2013-02-12 17:40:00,34.1,26.0,30.01,South,173,8.0,10.0,73,0.00,,,0.00,weatherlink.com 1.10,2013-02-12 23:40:00,
2013-02-12 17:55:00,33.7,26.0,30.01,SSE,155,4.0,11.0,74,0.00,,,0.00,weatherlink.com 1.10,2013-02-12 23:55:00,
2013-02-12 18:10:00,33.4,26.0,30.01,SSE,167,6.0,10.0,75,0.00,,,0.00,weatherlink.com 1.10,2013-02-13 00:10:00,
2013-02-12 18:25:00,33.1,26.0,30.01,SE,144,0.0,10.0,75,0.00,,,0.00,weatherlink.com 1.10,2013-02-13 00:25:00,
2013-02-12 18:40:00,32.7,26.0,30.01,SE,144,5.0,8.0,76,0.00,,,0.00,weatherlink.com 1.10,2013-02-13 00:40:00,
2013-02-12 18:55:00,32.0,27.0,30.01,SE,141,9.0,11.0,80,0.00,,,0.00,weatherlink.com 1.10,2013-02-13 00:55:00,
2013-02-12 19:10:00,31.9,27.0,30.01,SSE,159,9.0,12.0,81,0.00,,,0.00,weatherlink.com 1.10,2013-02-13 01:10:00,
2013-02-12 19:26:00,31.6,26.0,30.00,SSE,162,10.0,12.0,81,0.00,,,0.00,weatherlink.com 1.10,2013-02-13 01:26:00,
2013-02-12 19:41:00,31.5,26.0,30.00,SSE,160,10.0,13.0,81,0.00,,,0.00,weatherlink.com 1.10,2013-02-13 01:41:00,
2013-02-12 19:56:00,31.4,26.0,29.99,SSE,156,7.0,13.0,81,0.00,,,0.00,weatherlink.com 1.10,2013-02-13 01:56:00,
2013-02-12 20:11:00,31.1,26.0,29.99,SE,130,10.0,12.0,82,0.00,,,0.00,weatherlink.com 1.10,2013-02-13 02:11:00,
2013-02-12 20:26:00,30.9,26.0,29.99,SE,138,8.0,11.0,82,0.00,,,0.00,weatherlink.com 1.10,2013-02-13 02:26:00,
2013-02-12 20:41:00,-999.0,-99.9,29.98,North,-999,-999.0,-999.0,-999,0.00,,,0.00,weatherlink.com 1.10,2013-02-13 02:41:00,
2013-02-12 20:56:00,-999.0,-99.9,29.98,North,-999,-999.0,-999.0,-999,0.00,,,0.00,weatherlink.com 1.10,2013-02-13 02:56:00,
2013-02-12 21:11:00,-999.0,-99.9,29.98,North,-999,-999.0,-999.0,-999,0.00,,,0.00,weatherlink.com 1.10,2013-02-13 03:11:00,
2013-02-12 21:26:00,-999.0,-99.9,29.97,North,-999,-999.0,-999.0,-999,0.00,,,0.00,weatherlink.com 1.10,2013-02-13 03:26:00,
2013-02-12 21:41:00,-999.0,-99.9,29.97,North,-999,-999.0,-999.0,-999,0.00,,,0.00,weatherlink.com 1.10,2013-02-13 03:41:00,
2013-02-12 21:56:00,-999.0,-99.9,29.96,North,-999,-999.0,-999.0,-999,0.00,,,0.00,weatherlink.com 1.10,2013-02-13 03:56:00,
2013-02-12 22:11:00,29.1,25.0,29.96,SE,139,7.0,12.0,85,0.00,,,0.00,weatherlink.com 1.10,2013-02-13 04:11:00,
2013-02-12 22:26:00,29.0,25.0,29.95,SSE,150,7.0,11.0,86,0.00,,,0.00,weatherlink.com 1.10,2013-02-13 04:26:00,
2013-02-12 22:41:00,28.7,25.0,29.95,SE,130,9.0,10.0,86,0.00,,,0.00,weatherlink.com 1.10,2013-02-13 04:41:00,
2013-02-12 22:56:00,28.5,25.0,29.95,SSE,148,7.0,11.0,87,0.00,,,0.00,weatherlink.com 1.10,2013-02-13 04:56:00,
2013-02-12 23:11:00,28.3,25.0,29.95,SSE,148,2.0,8.0,87,0.00,,,0.00,weatherlink.com 1.10,2013-02-13 05:11:00,
2013-02-12 23:26:00,28.1,25.0,29.95,SSE,148,2.0,5.0,88,0.00,,,0.00,weatherlink.com 1.10,2013-02-13 05:26:00,
2013-02-12 23:41:00,28.0,25.0,29.95,SSE,148,2.0,6.0,88,0.00,,,0.00,weatherlink.com 1.10,2013-02-13 05:41:00,
2013-02-12 23:56:00,27.6,25.0,29.95,SSE,148,0.0,6.0,88,0.00,,,0.00,weatherlink.com 1.10,2013-02-13 05:56:00,